Time;durP1;ratioP1;P1;durP2;ratioP2;P2;SDS_P1;SDS_P2;PMS_P1;PMS_P2;Temp;Humidity;BMP_temperature;BMP_pressure;BME280_temperature;BME280_humidity;BME280_pressure;Samples;Min_cycle;Max_cycle;Signal;HPM_P1;HPM_P2
2021/06/26 00:00:18;;;;;;;7.63;7.03;;;;;;;;;;4953575;28;20191;-61
2021/06/26 00:02:44;;;;;;;6.93;6.33;;;;;;;;;;4962682;28;20560;-59
2021/06/26 00:05:11;;;;;;;7.13;6.53;;;;;;;;;;4961668;28;20259;-58
2021/06/26 00:07:37;;;;;;;7.73;7.03;;;;;;;;;;4962721;28;20204;-59
2021/06/26 00:10:05;;;;;;;7.80;6.83;;;;;;;;;;4955492;28;20690;-60
2021/06/26 00:12:31;;;;;;;7.80;7.07;;;;;;;;;;4953143;28;20599;-59
2021/06/26 00:14:57;;;;;;;7.80;7.00;;;;;;;;;;4962511;28;20176;-60
2021/06/26 00:17:24;;;;;;;7.60;6.90;;;;;;;;;;4967431;28;20176;-59
2021/06/26 00:19:50;;;;;;;8.60;7.07;;;;;;;;;;4942060;29;20831;-59
2021/06/26 00:22:16;;;;;;;7.17;6.57;;;;;;;;;;4955767;29;20625;-59
2021/06/26 00:24:43;;;;;;;9.10;6.43;;;;;;;;;;4939011;29;20261;-59
2021/06/26 00:27:09;;;;;;;7.97;7.17;;;;;;;;;;4972565;28;20187;-62
2021/06/26 00:29:35;;;;;;;7.43;6.73;;;;;;;;;;4960408;28;20244;-60
2021/06/26 00:32:01;;;;;;;7.73;7.03;;;;;;;;;;4954197;28;20188;-59
2021/06/26 00:34:28;;;;;;;7.33;6.73;;;;;;;;;;4933923;29;20625;-60
2021/06/26 00:36:54;;;;;;;8.33;7.50;;;;;;;;;;4936818;29;20262;-62
2021/06/26 00:39:20;;;;;;;8.43;7.63;;;;;;;;;;4969911;28;20186;-60
2021/06/26 00:41:46;;;;;;;7.43;6.83;;;;;;;;;;4960708;28;20185;-59
2021/06/26 00:44:12;;;;;;;8.80;8.00;;;;;;;;;;4954594;28;20829;-59
2021/06/26 00:46:38;;;;;;;8.67;7.43;;;;;;;;;;4957390;28;20184;-58
2021/06/26 00:49:05;;;;;;;7.20;6.60;;;;;;;;;;4951778;28;20192;-60
2021/06/26 00:51:31;;;;;;;9.37;6.73;;;;;;;;;;4950311;29;20664;-58
2021/06/26 00:53:57;;;;;;;7.67;6.83;;;;;;;;;;4963438;28;20664;-58
2021/06/26 00:56:26;;;;;;;7.47;6.87;;;;;;;;;;4974068;28;20187;-59
2021/06/26 00:58:54;;;;;;;7.17;6.47;;;;;;;;;;4969158;28;20193;-59
2021/06/26 01:01:21;;;;;;;7.20;6.60;;;;;;;;;;4971866;28;20185;-59
2021/06/26 01:03:50;;;;;;;7.17;6.47;;;;;;;;;;4960307;28;20215;-58
2021/06/26 01:06:17;;;;;;;7.10;6.50;;;;;;;;;;4963369;28;20204;-58
2021/06/26 01:08:43;;;;;;;7.03;6.37;;;;;;;;;;4974490;28;20228;-59
2021/06/26 01:11:09;;;;;;;7.87;7.07;;;;;;;;;;4991575;28;20187;-61
2021/06/26 01:13:35;;;;;;;7.43;6.73;;;;;;;;;;4990949;28;20167;-59
2021/06/26 01:16:02;;;;;;;7.00;6.43;;;;;;;;;;4981416;28;20267;-58
2021/06/26 01:18:28;;;;;;;7.67;6.97;;;;;;;;;;4973812;28;20191;-58
2021/06/26 01:20:54;;;;;;;7.20;6.50;;;;;;;;;;4973027;28;20195;-59
2021/06/26 01:23:20;;;;;;;7.50;6.90;;;;;;;;;;4973201;28;20211;-60
2021/06/26 01:25:47;;;;;;;7.80;7.10;;;;;;;;;;4973097;28;20204;-58
2021/06/26 01:28:14;;;;;;;7.60;6.90;;;;;;;;;;4974190;28;20312;-60
2021/06/26 01:30:40;;;;;;;7.97;7.07;;;;;;;;;;4974368;28;20601;-59
2021/06/26 01:33:06;;;;;;;7.97;7.27;;;;;;;;;;4974756;28;20179;-57
2021/06/26 01:35:33;;;;;;;7.67;6.87;;;;;;;;;;4974578;28;20183;-58
2021/06/26 01:38:00;;;;;;;7.53;6.93;;;;;;;;;;4972367;28;20188;-58
2021/06/26 01:40:27;;;;;;;9.60;7.57;;;;;;;;;;4973250;28;20534;-58
2021/06/26 01:42:54;;;;;;;7.50;6.80;;;;;;;;;;4989534;28;20190;-58
2021/06/26 01:45:21;;;;;;;7.60;6.90;;;;;;;;;;4971788;28;20223;-60
2021/06/26 01:47:50;;;;;;;7.97;7.17;;;;;;;;;;4972708;28;20184;-58
2021/06/26 01:50:17;;;;;;;7.63;6.93;;;;;;;;;;4979477;28;20190;-57
2021/06/26 01:52:47;;;;;;;8.43;7.53;;;;;;;;;;4974930;28;20191;-58
2021/06/26 01:55:14;;;;;;;8.13;7.43;;;;;;;;;;4982627;28;20194;-58
2021/06/26 01:57:44;;;;;;;7.27;6.47;;;;;;;;;;4976063;28;20183;-60
2021/06/26 02:00:11;;;;;;;8.10;7.40;;;;;;;;;;4982307;28;20191;-60
2021/06/26 02:02:37;;;;;;;7.47;6.77;;;;;;;;;;4992654;28;20668;-59
2021/06/26 02:05:04;;;;;;;7.80;7.10;;;;;;;;;;4981368;28;20183;-58
2021/06/26 02:07:30;;;;;;;8.10;7.40;;;;;;;;;;4972412;28;20575;-61
2021/06/26 02:09:56;;;;;;;8.40;7.60;;;;;;;;;;4964194;28;20251;-59
2021/06/26 02:12:22;;;;;;;7.53;6.50;;;;;;;;;;4962541;28;20181;-58
2021/06/26 02:14:52;;;;;;;7.43;6.70;;;;;;;;;;4959476;28;20184;-58
2021/06/26 02:17:18;;;;;;;8.10;7.40;;;;;;;;;;4955002;28;20183;-58
2021/06/26 02:19:44;;;;;;;7.87;7.17;;;;;;;;;;4958271;28;20188;-57
2021/06/26 02:22:10;;;;;;;8.33;7.07;;;;;;;;;;4961032;28;20189;-58
2021/06/26 02:24:36;;;;;;;8.43;7.10;;;;;;;;;;4953871;28;20212;-58
2021/06/26 02:27:02;;;;;;;7.40;6.77;;;;;;;;;;4967297;28;20686;-58
2021/06/26 02:29:28;;;;;;;7.67;6.97;;;;;;;;;;4953600;28;20243;-57
2021/06/26 02:31:54;;;;;;;8.50;7.63;;;;;;;;;;4955778;28;20584;-59
2021/06/26 02:34:20;;;;;;;8.17;7.47;;;;;;;;;;4968648;28;20533;-59
2021/06/26 02:36:46;;;;;;;8.33;7.60;;;;;;;;;;4954094;28;20181;-58
2021/06/26 02:39:12;;;;;;;7.27;6.57;;;;;;;;;;4962577;28;20188;-59
2021/06/26 02:41:38;;;;;;;7.20;6.60;;;;;;;;;;4967807;28;20644;-58
2021/06/26 02:44:04;;;;;;;8.37;7.63;;;;;;;;;;4967608;28;20192;-57
2021/06/26 02:46:31;;;;;;;7.97;7.27;;;;;;;;;;4953253;29;20762;-58
2021/06/26 02:48:57;;;;;;;7.73;7.03;;;;;;;;;;4960460;28;20192;-59
2021/06/26 02:51:23;;;;;;;8.87;7.97;;;;;;;;;;4965983;28;20508;-58
2021/06/26 02:53:49;;;;;;;7.40;6.70;;;;;;;;;;4952444;29;20640;-60
2021/06/26 02:56:15;;;;;;;7.77;6.77;;;;;;;;;;4942167;28;20685;-59
2021/06/26 02:58:41;;;;;;;7.77;7.00;;;;;;;;;;4947461;29;20189;-59
2021/06/26 03:01:07;;;;;;;8.33;7.50;;;;;;;;;;4969902;28;20227;-58
2021/06/26 03:03:33;;;;;;;7.67;6.97;;;;;;;;;;4959586;28;20188;-59
2021/06/26 03:06:00;;;;;;;7.67;6.97;;;;;;;;;;4947279;28;20258;-59
2021/06/26 03:08:26;;;;;;;7.57;6.83;;;;;;;;;;4971518;28;20219;-59
2021/06/26 03:10:52;;;;;;;7.43;6.83;;;;;;;;;;4967546;28;20547;-59
2021/06/26 03:13:18;;;;;;;8.20;7.40;;;;;;;;;;4941907;28;20172;-59
2021/06/26 03:15:44;;;;;;;7.83;7.07;;;;;;;;;;4951661;28;20385;-57
2021/06/26 03:18:11;;;;;;;7.03;6.27;;;;;;;;;;4957843;28;20194;-59
2021/06/26 03:20:37;;;;;;;8.00;7.27;;;;;;;;;;4932868;29;20558;-60
2021/06/26 03:23:03;;;;;;;8.23;7.53;;;;;;;;;;4952444;29;20187;-58
2021/06/26 03:25:29;;;;;;;7.70;7.00;;;;;;;;;;4952083;29;20200;-57
2021/06/26 03:27:55;;;;;;;7.83;7.13;;;;;;;;;;4952017;29;20183;-59
2021/06/26 03:30:21;;;;;;;7.70;7.00;;;;;;;;;;4950296;29;20184;-59
2021/06/26 03:32:47;;;;;;;8.10;7.40;;;;;;;;;;4950895;28;20208;-59
2021/06/26 03:35:14;;;;;;;7.63;6.93;;;;;;;;;;4955008;28;20267;-59
2021/06/26 03:37:40;;;;;;;7.80;7.00;;;;;;;;;;4961709;28;20216;-57
2021/06/26 03:40:06;;;;;;;7.27;6.60;;;;;;;;;;4960590;28;20255;-57
2021/06/26 03:42:32;;;;;;;8.13;7.33;;;;;;;;;;4968569;28;20208;-59
2021/06/26 03:44:58;;;;;;;8.20;7.40;;;;;;;;;;4953735;28;20204;-57
2021/06/26 03:47:26;;;;;;;8.53;7.67;;;;;;;;;;4934807;29;20172;-59
2021/06/26 03:49:52;;;;;;;7.23;6.63;;;;;;;;;;4934423;29;20188;-59
2021/06/26 03:52:18;;;;;;;8.73;7.50;;;;;;;;;;4951373;28;20185;-57
2021/06/26 03:54:44;;;;;;;8.53;7.73;;;;;;;;;;4964519;28;20183;-59
2021/06/26 03:57:10;;;;;;;8.27;7.47;;;;;;;;;;4958969;28;20172;-59
2021/06/26 03:59:36;;;;;;;9.70;8.70;;;;;;;;;;4956841;28;20234;-58
2021/06/26 04:02:06;;;;;;;8.50;7.73;;;;;;;;;;4952902;28;20195;-59
2021/06/26 04:04:33;;;;;;;8.80;7.90;;;;;;;;;;4961596;28;20296;-59
2021/06/26 04:06:59;;;;;;;9.17;8.37;;;;;;;;;;4957558;28;20295;-57
2021/06/26 04:09:25;;;;;;;8.23;7.50;;;;;;;;;;4965596;28;20260;-57
2021/06/26 04:11:51;;;;;;;8.87;8.07;;;;;;;;;;4969611;28;20180;-58
2021/06/26 04:14:17;;;;;;;8.23;7.47;;;;;;;;;;4955712;28;20180;-58
2021/06/26 04:16:43;;;;;;;7.90;7.10;;;;;;;;;;4984547;28;20187;-58
2021/06/26 04:19:09;;;;;;;8.20;7.40;;;;;;;;;;4971221;28;20938;-57
2021/06/26 04:21:35;;;;;;;8.87;8.00;;;;;;;;;;4972574;28;20237;-57
2021/06/26 04:24:01;;;;;;;8.57;7.77;;;;;;;;;;4973380;28;20665;-58
2021/06/26 04:26:27;;;;;;;8.10;7.40;;;;;;;;;;4970934;28;20234;-58
2021/06/26 04:28:53;;;;;;;9.37;8.47;;;;;;;;;;4952601;28;20183;-62
2021/06/26 04:31:19;;;;;;;8.27;7.47;;;;;;;;;;4969858;28;20235;-59
2021/06/26 04:33:45;;;;;;;8.70;8.00;;;;;;;;;;4952406;28;20544;-58
2021/06/26 04:36:14;;;;;;;9.20;8.30;;;;;;;;;;4956500;28;20184;-59
2021/06/26 04:38:40;;;;;;;7.80;7.10;;;;;;;;;;4955680;28;20188;-58
2021/06/26 04:41:06;;;;;;;8.00;7.27;;;;;;;;;;4971439;28;20198;-59
2021/06/26 04:43:32;;;;;;;8.20;7.50;;;;;;;;;;4969760;28;20188;-60
2021/06/26 04:45:58;;;;;;;8.23;7.13;;;;;;;;;;4986500;28;20256;-59
2021/06/26 04:48:27;;;;;;;8.23;7.47;;;;;;;;;;4987213;28;20175;-60
2021/06/26 04:50:54;;;;;;;8.87;7.97;;;;;;;;;;4968103;28;20187;-58
2021/06/26 04:53:20;;;;;;;8.17;7.47;;;;;;;;;;4970367;28;20184;-58
2021/06/26 04:55:51;;;;;;;8.27;7.57;;;;;;;;;;4984470;28;20194;-57
2021/06/26 04:58:18;;;;;;;8.03;7.23;;;;;;;;;;4978839;28;20188;-58
2021/06/26 05:00:44;;;;;;;8.00;7.20;;;;;;;;;;4965321;28;20215;-59
2021/06/26 05:03:10;;;;;;;9.17;8.33;;;;;;;;;;4973277;28;20661;-57
2021/06/26 05:05:36;;;;;;;9.83;8.93;;;;;;;;;;4981065;28;20203;-57
2021/06/26 05:08:02;;;;;;;8.30;7.53;;;;;;;;;;4974546;28;20203;-62
2021/06/26 05:10:28;;;;;;;7.93;7.13;;;;;;;;;;4984097;28;20195;-60
2021/06/26 05:12:54;;;;;;;8.53;7.70;;;;;;;;;;4973019;28;20421;-58
2021/06/26 05:15:20;;;;;;;8.33;7.53;;;;;;;;;;4974161;28;20219;-58
2021/06/26 05:17:46;;;;;;;7.87;7.27;;;;;;;;;;4973965;28;20211;-58
2021/06/26 05:20:16;;;;;;;8.60;7.70;;;;;;;;;;4973509;28;20318;-58
2021/06/26 05:22:42;;;;;;;9.13;8.03;;;;;;;;;;4979620;28;20187;-58
2021/06/26 05:25:09;;;;;;;9.00;8.23;;;;;;;;;;4982269;28;20631;-58
2021/06/26 05:27:35;;;;;;;8.87;7.97;;;;;;;;;;4992572;28;20175;-59
2021/06/26 05:30:01;;;;;;;8.30;7.60;;;;;;;;;;4980023;28;20263;-60
2021/06/26 05:32:27;;;;;;;8.70;7.80;;;;;;;;;;4973248;28;20264;-59
2021/06/26 05:34:53;;;;;;;8.97;8.17;;;;;;;;;;4971625;28;20196;-59
2021/06/26 05:37:19;;;;;;;8.67;7.50;;;;;;;;;;4975207;28;20836;-60
2021/06/26 05:39:45;;;;;;;8.23;7.50;;;;;;;;;;4978045;28;20210;-60
2021/06/26 05:42:11;;;;;;;9.10;7.73;;;;;;;;;;4978509;28;20219;-60
2021/06/26 05:44:37;;;;;;;8.23;7.07;;;;;;;;;;4977272;28;20203;-59
2021/06/26 05:47:03;;;;;;;8.47;7.63;;;;;;;;;;4992722;28;20238;-62
2021/06/26 05:49:29;;;;;;;8.50;7.70;;;;;;;;;;4985410;28;20261;-60
2021/06/26 05:51:55;;;;;;;10.13;7.63;;;;;;;;;;4985300;28;20639;-58
2021/06/26 05:54:21;;;;;;;10.13;8.57;;;;;;;;;;4983603;28;20176;-59
2021/06/26 05:56:47;;;;;;;8.47;7.77;;;;;;;;;;4972116;28;20175;-59
2021/06/26 05:59:14;;;;;;;8.53;7.73;;;;;;;;;;4969781;28;20179;-60
2021/06/26 06:01:40;;;;;;;9.43;8.50;;;;;;;;;;4959096;28;20210;-59
2021/06/26 06:04:10;;;;;;;9.63;8.73;;;;;;;;;;4953806;28;20759;-59
2021/06/26 06:06:36;;;;;;;9.40;8.50;;;;;;;;;;4971747;28;20220;-59
2021/06/26 06:09:04;;;;;;;9.80;8.77;;;;;;;;;;4965150;28;20263;-58
2021/06/26 06:11:30;;;;;;;9.10;8.20;;;;;;;;;;4933262;29;20607;-59
2021/06/26 06:13:56;;;;;;;8.83;7.93;;;;;;;;;;4931417;28;20199;-59
2021/06/26 06:16:24;;;;;;;9.83;8.40;;;;;;;;;;4951489;29;20545;-59
2021/06/26 06:18:50;;;;;;;9.07;8.27;;;;;;;;;;4937419;29;20185;-60
2021/06/26 06:21:16;;;;;;;8.90;8.00;;;;;;;;;;4953724;29;20194;-59
2021/06/26 06:23:42;;;;;;;9.80;8.90;;;;;;;;;;4951876;28;20323;-58
2021/06/26 06:26:08;;;;;;;9.60;8.67;;;;;;;;;;4951680;28;20208;-58
2021/06/26 06:28:34;;;;;;;9.40;8.40;;;;;;;;;;4951574;28;20215;-59
2021/06/26 06:31:01;;;;;;;9.63;8.63;;;;;;;;;;4952420;28;20246;-58
2021/06/26 06:33:27;;;;;;;13.93;12.50;;;;;;;;;;4952204;28;20180;-61
2021/06/26 06:35:53;;;;;;;18.17;16.27;;;;;;;;;;4934388;29;20635;-61
2021/06/26 06:38:19;;;;;;;17.50;15.70;;;;;;;;;;4952064;28;20670;-60
2021/06/26 06:40:46;;;;;;;24.57;18.70;;;;;;;;;;4949925;29;20192;-61
2021/06/26 06:43:12;;;;;;;20.83;18.63;;;;;;;;;;4934803;29;20214;-60
2021/06/26 06:45:38;;;;;;;18.97;16.70;;;;;;;;;;4952026;29;20196;-57
2021/06/26 06:48:04;;;;;;;25.50;19.83;;;;;;;;;;4933999;29;20181;-59
2021/06/26 06:50:31;;;;;;;26.60;21.00;;;;;;;;;;4948941;28;20192;-58
2021/06/26 06:53:00;;;;;;;25.50;21.30;;;;;;;;;;4942601;28;20615;-58
2021/06/26 06:55:26;;;;;;;21.27;18.00;;;;;;;;;;4953932;28;20665;-60
2021/06/26 06:57:52;;;;;;;21.43;19.27;;;;;;;;;;4947254;29;20208;-57
2021/06/26 07:00:18;;;;;;;22.83;20.33;;;;;;;;;;4949607;28;20207;-58
2021/06/26 07:02:44;;;;;;;22.30;20.03;;;;;;;;;;4948457;29;20274;-59
2021/06/26 07:05:10;;;;;;;26.27;21.60;;;;;;;;;;4938066;29;20209;-58
2021/06/26 07:07:36;;;;;;;24.23;20.03;;;;;;;;;;4949747;28;20252;-58
2021/06/26 07:10:03;;;;;;;24.27;21.17;;;;;;;;;;4939423;28;20216;-59
2021/06/26 07:12:29;;;;;;;25.37;21.40;;;;;;;;;;4943534;29;20518;-59
2021/06/26 07:14:55;;;;;;;23.87;20.53;;;;;;;;;;4946871;29;20192;-61
2021/06/26 07:17:21;;;;;;;25.10;20.33;;;;;;;;;;4931073;29;20180;-58
2021/06/26 07:19:47;;;;;;;22.60;20.07;;;;;;;;;;4950614;28;20187;-58
2021/06/26 07:22:13;;;;;;;22.70;20.37;;;;;;;;;;4952026;29;20176;-58
2021/06/26 07:24:40;;;;;;;24.87;19.07;;;;;;;;;;4948017;29;20216;-59
2021/06/26 07:27:06;;;;;;;20.23;18.13;;;;;;;;;;4945565;29;20188;-58
2021/06/26 07:29:32;;;;;;;20.77;18.63;;;;;;;;;;4947086;29;20189;-59
2021/06/26 07:31:58;;;;;;;21.10;18.87;;;;;;;;;;4948562;28;20232;-60
2021/06/26 07:34:24;;;;;;;21.87;19.47;;;;;;;;;;4954932;28;20173;-59
2021/06/26 07:36:50;;;;;;;20.93;18.93;;;;;;;;;;4949933;29;20675;-56
2021/06/26 07:39:16;;;;;;;19.00;16.63;;;;;;;;;;4944936;29;20259;-57
2021/06/26 07:41:42;;;;;;;20.37;18.10;;;;;;;;;;4946261;28;20188;-58
2021/06/26 07:44:08;;;;;;;19.47;17.47;;;;;;;;;;4948721;28;20190;-56
2021/06/26 07:46:34;;;;;;;20.37;17.17;;;;;;;;;;4943288;29;20348;-58
2021/06/26 07:49:00;;;;;;;18.43;16.53;;;;;;;;;;4961958;28;20199;-56
2021/06/26 07:51:26;;;;;;;20.87;17.27;;;;;;;;;;4948530;28;20184;-57
2021/06/26 07:53:53;;;;;;;18.23;15.57;;;;;;;;;;4933411;28;20208;-56
2021/06/26 07:56:19;;;;;;;19.03;17.13;;;;;;;;;;4936403;29;20181;-56
2021/06/26 07:58:45;;;;;;;16.43;14.83;;;;;;;;;;4936484;29;20216;-57
2021/06/26 08:01:11;;;;;;;16.17;14.57;;;;;;;;;;4948064;28;20196;-55
2021/06/26 08:03:37;;;;;;;16.93;15.20;;;;;;;;;;4953723;28;20726;-58
2021/06/26 08:06:03;;;;;;;16.93;15.10;;;;;;;;;;4948977;28;20299;-59
2021/06/26 08:08:29;;;;;;;15.27;13.60;;;;;;;;;;4936431;28;20302;-57
2021/06/26 08:10:55;;;;;;;15.30;13.43;;;;;;;;;;4968359;28;20631;-57
2021/06/26 08:13:23;;;;;;;14.83;13.27;;;;;;;;;;4966548;28;20184;-58
2021/06/26 08:15:49;;;;;;;15.13;13.10;;;;;;;;;;4985963;28;20269;-56
2021/06/26 08:18:16;;;;;;;14.93;13.53;;;;;;;;;;4979696;28;20172;-57
2021/06/26 08:20:43;;;;;;;18.57;13.83;;;;;;;;;;4969107;28;20219;-58
2021/06/26 08:23:09;;;;;;;16.33;13.60;;;;;;;;;;4969819;28;20180;-55
2021/06/26 08:25:35;;;;;;;18.50;14.07;;;;;;;;;;4966688;28;20686;-58
2021/06/26 08:28:01;;;;;;;15.33;13.57;;;;;;;;;;4967337;28;20607;-56
2021/06/26 08:30:27;;;;;;;12.73;11.43;;;;;;;;;;4962724;28;20552;-57
2021/06/26 08:32:55;;;;;;;12.17;10.33;;;;;;;;;;4958334;28;20250;-56
2021/06/26 08:35:22;;;;;;;11.63;10.50;;;;;;;;;;4969136;28;20243;-55
2021/06/26 08:37:48;;;;;;;12.10;10.33;;;;;;;;;;4963935;28;20526;-55
2021/06/26 08:40:15;;;;;;;10.27;9.30;;;;;;;;;;4970843;28;20170;-55
2021/06/26 08:42:41;;;;;;;11.10;10.00;;;;;;;;;;4974079;28;20198;-56
2021/06/26 08:45:09;;;;;;;11.03;10.00;;;;;;;;;;4972911;28;20213;-56
2021/06/26 08:47:35;;;;;;;11.33;9.83;;;;;;;;;;4972309;28;20185;-55
2021/06/26 08:50:01;;;;;;;11.73;10.53;;;;;;;;;;4968704;28;20199;-55
2021/06/26 08:52:27;;;;;;;12.00;9.17;;;;;;;;;;4968804;28;20210;-58
2021/06/26 08:54:55;;;;;;;10.70;9.60;;;;;;;;;;4970913;28;20186;-55
2021/06/26 08:57:31;;;;;;;11.17;9.97;;;;;;;;;;4973428;28;20592;-55
2021/06/26 08:59:58;;;;;;;10.47;9.47;;;;;;;;;;4974120;28;20186;-55
2021/06/26 09:02:24;;;;;;;10.50;9.50;;;;;;;;;;4972715;28;20654;-55
2021/06/26 09:04:50;;;;;;;10.67;9.57;;;;;;;;;;4968564;28;20250;-56
2021/06/26 09:07:27;;;;;;;10.70;9.57;;;;;;;;;;4973113;28;20276;-57
2021/06/26 09:09:56;;;;;;;10.50;9.40;;;;;;;;;;4952654;28;20215;-57
2021/06/26 09:12:22;;;;;;;14.23;10.47;;;;;;;;;;4953677;29;20693;-56
2021/06/26 09:14:49;;;;;;;13.03;10.70;;;;;;;;;;4947431;29;20187;-58
2021/06/26 09:17:18;;;;;;;14.23;10.50;;;;;;;;;;4935659;29;20650;-57
2021/06/26 09:19:58;;;;;;;11.57;10.37;;;;;;;;;;4945867;28;20211;-57
2021/06/26 09:22:35;;;;;;;11.47;10.37;;;;;;;;;;4948235;28;20202;-57
2021/06/26 09:25:01;;;;;;;10.90;9.90;;;;;;;;;;4925206;29;20364;-57
2021/06/26 09:27:32;;;;;;;13.00;9.17;;;;;;;;;;4948964;28;20179;-56
2021/06/26 09:29:58;;;;;;;10.90;9.00;;;;;;;;;;4958636;28;20195;-57
2021/06/26 09:32:29;;;;;;;9.73;8.67;;;;;;;;;;4951484;29;20175;-58
2021/06/26 09:34:56;;;;;;;10.93;9.17;;;;;;;;;;4953176;29;20183;-57
2021/06/26 09:37:24;;;;;;;10.33;9.10;;;;;;;;;;4969641;28;20584;-56
2021/06/26 09:39:55;;;;;;;11.47;8.70;;;;;;;;;;4947691;29;20189;-57
2021/06/26 09:42:27;;;;;;;9.43;8.40;;;;;;;;;;4951814;29;20640;-60
2021/06/26 09:45:00;;;;;;;9.10;8.20;;;;;;;;;;4955501;28;20207;-60
2021/06/26 09:47:33;;;;;;;9.77;8.73;;;;;;;;;;4953434;29;20188;-59
2021/06/26 09:50:17;;;;;;;10.23;9.23;;;;;;;;;;4949934;29;20636;-60
2021/06/26 09:53:04;;;;;;;15.03;9.70;;;;;;;;;;4945896;29;20196;-61
2021/06/26 09:55:31;;;;;;;9.60;8.47;;;;;;;;;;4966128;28;20554;-59
2021/06/26 09:57:58;;;;;;;10.20;9.17;;;;;;;;;;4953241;29;20185;-56
2021/06/26 10:00:29;;;;;;;9.03;8.03;;;;;;;;;;4951269;28;20193;-55
2021/06/26 10:02:55;;;;;;;10.97;9.17;;;;;;;;;;4946972;28;20248;-60
2021/06/26 10:05:21;;;;;;;10.50;9.37;;;;;;;;;;4950859;28;20622;-60
2021/06/26 10:07:48;;;;;;;9.53;8.63;;;;;;;;;;4952252;28;20211;-60
2021/06/26 10:10:22;;;;;;;11.30;9.97;;;;;;;;;;4951394;28;20232;-61
2021/06/26 10:12:49;;;;;;;10.33;9.53;;;;;;;;;;4951272;29;20185;-61
2021/06/26 10:15:15;;;;;;;10.03;9.03;;;;;;;;;;4947308;29;20191;-61
2021/06/26 10:17:42;;;;;;;8.47;7.77;;;;;;;;;;4943736;29;20193;-61
2021/06/26 10:20:09;;;;;;;8.93;8.07;;;;;;;;;;4930412;29;20189;-61
2021/06/26 10:22:37;;;;;;;10.13;9.00;;;;;;;;;;4953424;28;20184;-62
2021/06/26 10:25:04;;;;;;;10.47;9.37;;;;;;;;;;4949217;29;20655;-60
2021/06/26 10:27:30;;;;;;;21.80;8.10;;;;;;;;;;4948990;29;20586;-60
2021/06/26 10:29:56;;;;;;;8.83;7.97;;;;;;;;;;4948983;28;20177;-61
2021/06/26 10:32:22;;;;;;;9.23;8.43;;;;;;;;;;4952794;29;20196;-60
2021/06/26 10:34:50;;;;;;;8.57;7.60;;;;;;;;;;4947960;28;20185;-60
2021/06/26 10:37:23;;;;;;;9.27;8.47;;;;;;;;;;4939272;29;20213;-60
2021/06/26 10:40:01;;;;;;;8.43;7.63;;;;;;;;;;4953335;29;20195;-61
2021/06/26 10:42:33;;;;;;;9.40;8.60;;;;;;;;;;4953351;29;20304;-62
2021/06/26 10:44:59;;;;;;;9.50;8.23;;;;;;;;;;4951295;28;20671;-61
2021/06/26 10:47:38;;;;;;;7.93;7.23;;;;;;;;;;4935531;29;20185;-64
2021/06/26 10:50:11;;;;;;;9.10;8.17;;;;;;;;;;4934415;29;20192;-61
2021/06/26 10:52:47;;;;;;;9.03;8.13;;;;;;;;;;4953352;28;20610;-62
2021/06/26 10:55:13;;;;;;;8.50;7.40;;;;;;;;;;4951167;28;20181;-61
2021/06/26 10:57:49;;;;;;;8.07;7.33;;;;;;;;;;4954995;29;20172;-61
2021/06/26 11:00:15;;;;;;;11.67;8.07;;;;;;;;;;4953246;29;20193;-63
2021/06/26 11:02:42;;;;;;;8.43;7.63;;;;;;;;;;4953977;29;20185;-61
2021/06/26 11:05:09;;;;;;;8.03;7.30;;;;;;;;;;4950790;28;20256;-62
2021/06/26 11:07:35;;;;;;;8.33;7.40;;;;;;;;;;4944760;28;20437;-63
2021/06/26 11:10:12;;;;;;;8.17;7.47;;;;;;;;;;4960155;28;20216;-62
2021/06/26 11:12:40;;;;;;;7.80;7.10;;;;;;;;;;4950301;28;20191;-62
2021/06/26 11:15:06;;;;;;;10.23;7.77;;;;;;;;;;4965558;28;20198;-62
2021/06/26 11:17:36;;;;;;;8.30;7.50;;;;;;;;;;4959144;28;20253;-62
2021/06/26 11:20:03;;;;;;;8.50;7.80;;;;;;;;;;4952743;29;20281;-62
2021/06/26 11:22:29;;;;;;;8.27;7.47;;;;;;;;;;4951669;28;20195;-62
2021/06/26 11:24:55;;;;;;;8.87;8.03;;;;;;;;;;4966485;28;20275;-63
2021/06/26 11:27:22;;;;;;;8.77;7.75;;;;;;;;;;4950839;29;20415;-62
2021/06/26 11:29:49;;;;;;;8.83;7.07;;;;;;;;;;4958191;28;20189;-62
2021/06/26 11:32:21;;;;;;;7.47;6.87;;;;;;;;;;4937477;29;20183;-62
2021/06/26 11:34:57;;;;;;;9.57;7.53;;;;;;;;;;4957970;28;20523;-62
2021/06/26 11:37:24;;;;;;;7.97;7.27;;;;;;;;;;4935649;29;20187;-62
2021/06/26 11:39:50;;;;;;;10.37;8.20;;;;;;;;;;4933266;29;20640;-62
2021/06/26 11:42:18;;;;;;;9.43;8.73;;;;;;;;;;4950163;29;20180;-62
2021/06/26 11:44:44;;;;;;;9.10;8.30;;;;;;;;;;4951008;29;20181;-62
2021/06/26 11:47:10;;;;;;;8.60;7.80;;;;;;;;;;4934761;29;20544;-62
2021/06/26 11:49:38;;;;;;;8.17;7.47;;;;;;;;;;4933416;29;20182;-62
2021/06/26 11:52:06;;;;;;;8.60;7.90;;;;;;;;;;4951794;29;20185;-62
2021/06/26 11:54:32;;;;;;;10.07;7.43;;;;;;;;;;4950839;29;20194;-62
2021/06/26 11:56:58;;;;;;;7.80;7.07;;;;;;;;;;4931845;29;20201;-64
2021/06/26 11:59:29;;;;;;;8.17;7.50;;;;;;;;;;4952524;29;20605;-61
2021/06/26 12:01:55;;;;;;;10.17;8.67;;;;;;;;;;4935018;29;20243;-61
2021/06/26 12:04:28;;;;;;;8.60;7.80;;;;;;;;;;4950430;29;20204;-63
2021/06/26 12:06:54;;;;;;;9.13;8.13;;;;;;;;;;4960172;28;20204;-62
2021/06/26 12:09:23;;;;;;;11.93;8.17;;;;;;;;;;4971100;28;20582;-61
2021/06/26 12:11:49;;;;;;;9.00;7.77;;;;;;;;;;4975065;28;20172;-61
2021/06/26 12:14:16;;;;;;;8.37;7.57;;;;;;;;;;4956219;28;20591;-61
2021/06/26 12:16:42;;;;;;;9.93;8.17;;;;;;;;;;4957677;28;20191;-61
2021/06/26 12:19:08;;;;;;;10.30;9.23;;;;;;;;;;4956378;28;20194;-61
2021/06/26 12:21:45;;;;;;;9.90;8.50;;;;;;;;;;4973759;28;20270;-62
2021/06/26 12:24:12;;;;;;;9.43;8.53;;;;;;;;;;4974259;28;20248;-61
2021/06/26 12:26:38;;;;;;;9.90;8.83;;;;;;;;;;4956099;28;20202;-61
2021/06/26 12:29:04;;;;;;;9.80;8.90;;;;;;;;;;4974191;28;20187;-61
2021/06/26 12:31:41;;;;;;;9.47;8.50;;;;;;;;;;4974374;28;20177;-62
2021/06/26 12:34:07;;;;;;;9.93;8.93;;;;;;;;;;4956500;28;20184;-62
2021/06/26 12:36:33;;;;;;;11.73;7.90;;;;;;;;;;4967127;28;20187;-62
2021/06/26 12:39:00;;;;;;;9.27;7.70;;;;;;;;;;4964890;28;20185;-61
2021/06/26 12:41:31;;;;;;;8.30;7.60;;;;;;;;;;4967418;28;20180;-61
2021/06/26 12:43:57;;;;;;;8.50;7.77;;;;;;;;;;4974803;28;20199;-63
2021/06/26 12:46:24;;;;;;;9.03;7.83;;;;;;;;;;4964567;28;20254;-61
2021/06/26 12:48:55;;;;;;;7.93;7.23;;;;;;;;;;4955838;28;20238;-60
2021/06/26 12:51:31;;;;;;;8.83;7.67;;;;;;;;;;4967936;28;20199;-61
2021/06/26 12:53:58;;;;;;;8.43;7.63;;;;;;;;;;4967259;28;20181;-62
2021/06/26 12:56:25;;;;;;;8.60;7.53;;;;;;;;;;4973419;28;20189;-60
2021/06/26 12:58:55;;;;;;;7.80;7.10;;;;;;;;;;4973414;28;20194;-60
2021/06/26 13:01:22;;;;;;;8.43;7.63;;;;;;;;;;4974200;28;20181;-60
2021/06/26 13:03:56;;;;;;;8.60;7.80;;;;;;;;;;4971248;28;20267;-60
2021/06/26 13:06:22;;;;;;;9.10;8.30;;;;;;;;;;4958067;28;20300;-58
2021/06/26 13:08:49;;;;;;;10.10;8.88;;;;;;;;;;4970538;28;20449;-60
2021/06/26 13:11:16;;;;;;;8.50;7.80;;;;;;;;;;4973131;28;20585;-61
2021/06/26 13:13:42;;;;;;;8.37;7.57;;;;;;;;;;4970232;28;20179;-61
2021/06/26 13:16:08;;;;;;;8.93;8.13;;;;;;;;;;4972041;28;20195;-61
2021/06/26 13:18:34;;;;;;;8.87;8.17;;;;;;;;;;4970041;28;20194;-60
2021/06/26 13:21:00;;;;;;;8.67;7.97;;;;;;;;;;4961731;28;20187;-60
2021/06/26 13:23:26;;;;;;;8.33;7.53;;;;;;;;;;4949115;28;20294;-60
2021/06/26 13:25:52;;;;;;;8.47;7.77;;;;;;;;;;4969248;28;20683;-61
2021/06/26 13:28:18;;;;;;;8.70;8.00;;;;;;;;;;4972912;28;20183;-61
2021/06/26 13:30:44;;;;;;;7.60;7.00;;;;;;;;;;4969784;28;20187;-61
2021/06/26 13:33:10;;;;;;;8.73;7.93;;;;;;;;;;4972864;28;20198;-60
2021/06/26 13:35:36;;;;;;;9.53;8.63;;;;;;;;;;4969872;28;20183;-60
2021/06/26 13:38:02;;;;;;;9.27;8.47;;;;;;;;;;4969717;28;20188;-60
2021/06/26 13:40:28;;;;;;;8.10;7.30;;;;;;;;;;4984483;28;20682;-61
2021/06/26 13:42:54;;;;;;;9.27;8.37;;;;;;;;;;4947963;28;20684;-60
2021/06/26 13:45:20;;;;;;;8.13;7.47;;;;;;;;;;4960578;28;20228;-60
2021/06/26 13:47:46;;;;;;;8.87;8.13;;;;;;;;;;4969857;28;20231;-61
2021/06/26 13:50:12;;;;;;;8.73;7.93;;;;;;;;;;4969759;28;20195;-62
2021/06/26 13:52:38;;;;;;;8.57;7.87;;;;;;;;;;4953008;28;20198;-62
2021/06/26 13:55:04;;;;;;;8.63;7.87;;;;;;;;;;4971916;28;20638;-61
2021/06/26 13:57:30;;;;;;;7.30;6.80;;;;;;;;;;4952684;28;20272;-61
2021/06/26 13:59:56;;;;;;;7.60;6.97;;;;;;;;;;4971668;28;20218;-61
2021/06/26 14:02:22;;;;;;;8.47;7.67;;;;;;;;;;4972078;28;20645;-60
2021/06/26 14:04:49;;;;;;;8.40;7.70;;;;;;;;;;4983643;28;20187;-61
2021/06/26 14:07:15;;;;;;;8.33;7.63;;;;;;;;;;4972491;28;20210;-60
2021/06/26 14:09:41;;;;;;;9.43;7.83;;;;;;;;;;4954673;28;20215;-60
2021/06/26 14:12:07;;;;;;;8.37;7.67;;;;;;;;;;4971028;28;20187;-59
2021/06/26 14:14:33;;;;;;;8.90;7.83;;;;;;;;;;4962932;28;20627;-59
2021/06/26 14:16:59;;;;;;;9.00;7.73;;;;;;;;;;4955921;28;20181;-60
2021/06/26 14:19:25;;;;;;;9.53;8.73;;;;;;;;;;4969765;28;20191;-61
2021/06/26 14:21:51;;;;;;;9.60;8.07;;;;;;;;;;4967273;28;20190;-60
2021/06/26 14:24:17;;;;;;;8.83;7.80;;;;;;;;;;4955775;28;20222;-60
2021/06/26 14:26:43;;;;;;;8.30;7.50;;;;;;;;;;4963456;28;20242;-58
2021/06/26 14:29:09;;;;;;;8.30;7.10;;;;;;;;;;4963619;28;20545;-60
2021/06/26 14:31:35;;;;;;;8.50;7.40;;;;;;;;;;4970133;28;20187;-60
2021/06/26 14:34:02;;;;;;;8.23;7.43;;;;;;;;;;4964082;28;20194;-59
2021/06/26 14:36:28;;;;;;;7.03;6.43;;;;;;;;;;4941800;29;20374;-60